Atyrau, Kazakhstan
Current Conditions -  °F | °C
As of 2:00 AM on Wednesday 26 Nov 2014 (Local Time) from UATG Reporting Station
Clear Clear  
Wind Chill: -21°   Ceiling: Unl
Heat Index: -13°   Visibility: 6mi
Dew Point: -18°   Wind: 11mph
Humidity: 67%   Direction: 70°ENE
Pressure: 30.65"   Gusts: NA
Location:  47.12°N, 51.88°E
Report Text: UATG 252200Z 07005MPS CAVOK M13/M18 Q1038 R14/CLRD70 NOSIG RMKQFE781/1041
Loading
Personal Weather Stations






























Interactive Weather Map New forecast layout! Learn more

10-Day Weather Forecast

Advertisements
Track Severe Weather on mobile